createdAt,value
2023-03-18T00:04:56.463Z,59.20
2023-03-18T00:09:58.545Z,60.20
2023-03-18T00:16:03.778Z,58.70
2023-03-18T00:22:24.882Z,60.80
2023-03-18T00:28:45.832Z,55.10
2023-03-18T00:35:06.980Z,65.50
2023-03-18T00:41:30.718Z,58.10
2023-03-18T00:48:03.503Z,62.90
2023-03-18T00:54:44.552Z,52.70
2023-03-18T01:00:09.310Z,51.80
2023-03-18T01:06:11.193Z,53.70
2023-03-18T01:12:19.821Z,57.90
2023-03-18T01:17:21.341Z,60.80
2023-03-18T01:22:44.333Z,62.40
2023-03-18T01:28:45.725Z,63.30
2023-03-18T01:35:07.605Z,59.30
2023-03-18T01:41:29.325Z,56.30
2023-03-18T01:47:50.682Z,49.80
2023-03-18T01:54:15.074Z,44.60
2023-03-18T02:00:36.419Z,46.50
2023-03-18T02:06:57.477Z,42.60
2023-03-18T02:13:18.709Z,45.30
2023-03-18T02:19:39.801Z,45.10
2023-03-18T02:25:53.905Z,45.30
2023-03-18T02:31:17.763Z,44.80
2023-03-18T02:36:27.782Z,44.00
2023-03-18T02:42:29.480Z,44.20
2023-03-18T02:48:32.762Z,45.40
2023-03-18T02:53:34.554Z,45.80
2023-03-18T02:58:36.832Z,42.90
2023-03-18T03:03:40.167Z,47.20
2023-03-18T03:08:44.598Z,46.60
2023-03-18T03:13:46.838Z,43.90
2023-03-18T03:18:48.727Z,46.70
2023-03-18T03:24:49.929Z,48.10
2023-03-18T03:31:11.122Z,47.30
2023-03-18T03:37:32.281Z,47.20
2023-03-18T03:42:53.590Z,50.90
2023-03-18T03:47:55.227Z,51.80
2023-03-18T03:52:56.882Z,52.70
2023-03-18T03:58:58.154Z,47.90
2023-03-18T04:05:25.185Z,45.30
2023-03-18T04:10:47.199Z,45.70
2023-03-18T04:15:49.497Z,41.80
2023-03-18T04:21:52.773Z,45.40
2023-03-18T04:28:14.194Z,46.50
2023-03-18T04:34:45.391Z,46.40
2023-03-18T04:40:07.850Z,46.90
2023-03-18T04:45:10.433Z,51.30
2023-03-18T04:50:13.448Z,56.60
2023-03-18T04:56:14.977Z,52.20
2023-03-18T05:01:40.987Z,54.20
2023-03-18T05:06:53.389Z,54.20
2023-03-18T05:11:58.664Z,58.30
2023-03-18T05:17:45.310Z,60.50
2023-03-18T05:22:49.626Z,59.00
2023-03-18T05:28:03.971Z,53.90
2023-03-18T05:33:14.677Z,58.70
2023-03-18T05:38:20.954Z,62.40
2023-03-18T05:43:24.335Z,55.30
2023-03-18T05:48:28.512Z,56.00
2023-03-18T05:53:33.185Z,58.90
2023-03-18T05:58:42.481Z,68.90
2023-03-18T06:04:56.126Z,62.00
2023-03-18T06:11:18.378Z,56.40
2023-03-18T06:16:41.943Z,48.10
2023-03-18T06:22:01.362Z,48.70
2023-03-18T06:27:57.695Z,47.50
2023-03-18T06:34:23.317Z,50.20
2023-03-18T06:39:44.974Z,54.50
2023-03-18T06:44:51.525Z,59.20
2023-03-18T06:49:59.822Z,47.90
2023-03-18T06:56:09.542Z,38.50
2023-03-18T07:01:26.611Z,34.80
2023-03-18T07:07:28.069Z,33.70
2023-03-18T07:13:49.349Z,29.20
2023-03-18T07:19:18.152Z,30.80
2023-03-18T07:24:21.276Z,25.30
2023-03-18T07:30:39.177Z,25.80
2023-03-18T07:36:45.645Z,27.40
2023-03-18T07:42:47.654Z,28.70
2023-03-18T07:47:49.775Z,27.00
2023-03-18T07:52:52.959Z,28.40
2023-03-18T07:58:57.759Z,27.90
2023-03-18T08:04:46.941Z,24.30
2023-03-18T08:09:50.115Z,23.00
2023-03-18T08:14:53.406Z,22.90
2023-03-18T08:19:56.957Z,19.00
2023-03-18T08:24:59.673Z,16.00
2023-03-18T08:31:01.456Z,15.30
2023-03-18T08:37:22.977Z,14.40
2023-03-18T08:43:44.472Z,13.10
2023-03-18T08:50:15.594Z,10.70
2023-03-18T08:56:36.749Z,10.10
2023-03-18T09:02:58.004Z,9.70
2023-03-18T09:08:28.872Z,10.20
2023-03-18T09:14:30.021Z,9.10
2023-03-18T09:19:52.878Z,9.90
2023-03-18T09:25:54.321Z,11.10
2023-03-18T09:32:15.483Z,11.00
2023-03-18T09:37:47.985Z,11.10
2023-03-18T09:43:57.945Z,9.90
2023-03-18T09:49:59.016Z,7.70
2023-03-18T09:55:04.421Z,8.90
2023-03-18T10:00:24.621Z,8.20
2023-03-18T10:05:40.107Z,9.70
2023-03-18T10:10:52.851Z,9.70
2023-03-18T10:16:11.446Z,6.70
2023-03-18T10:21:16.469Z,8.00
2023-03-18T10:26:43.082Z,7.00
2023-03-18T10:32:04.246Z,7.30
2023-03-18T10:37:17.473Z,7.30
2023-03-18T10:42:26.944Z,6.90
2023-03-18T10:47:44.019Z,6.00
2023-03-18T11:00:18.088Z,6.50
2023-03-18T11:07:44.697Z,6.50
2023-03-18T11:14:49.193Z,6.20
2023-03-18T11:21:52.310Z,7.50
2023-03-18T11:28:42.925Z,6.60
2023-03-18T11:35:11.600Z,6.70
2023-03-18T12:01:24.459Z,7.70
2023-03-18T12:08:55.508Z,6.40
2023-03-18T12:23:19.858Z,6.90
2023-03-18T12:30:55.228Z,7.70
2023-03-18T12:38:06.619Z,7.80
2023-03-18T12:44:44.519Z,7.60
2023-03-18T12:59:06.469Z,7.90
2023-03-18T13:13:29.922Z,7.40
2023-03-18T13:20:25.793Z,11.80
2023-03-18T13:27:32.331Z,7.20
2023-03-18T13:34:15.095Z,6.80
2023-03-18T13:41:33.753Z,6.60
2023-03-18T13:59:19.289Z,5.30
2023-03-18T14:06:13.384Z,5.70
2023-03-18T14:21:14.087Z,6.00
2023-03-18T14:28:37.208Z,6.40
2023-03-18T14:35:15.597Z,7.20
2023-03-18T14:41:09.354Z,5.50
2023-03-18T14:47:38.693Z,5.90
2023-03-18T14:54:19.134Z,5.30
2023-03-18T15:00:41.358Z,5.20
2023-03-18T15:07:40.049Z,5.80
2023-03-18T15:15:04.245Z,6.00
2023-03-18T15:22:15.877Z,6.80
2023-03-18T15:29:24.973Z,6.50
2023-03-18T15:36:19.121Z,5.30
2023-03-18T16:30:32.843Z,7.40
2023-03-18T16:37:17.420Z,6.50
2023-03-18T16:59:44.844Z,6.60
2023-03-18T17:13:44.469Z,9.20
2023-03-18T17:20:47.452Z,12.20
2023-03-18T17:27:54.859Z,10.50
2023-03-18T17:34:31.228Z,14.00
2023-03-18T17:42:17.402Z,15.20
2023-03-18T17:57:53.534Z,20.80
2023-03-18T17:59:20.607Z,16.70
2023-03-18T18:04:44.441Z,34.90
2023-03-18T18:11:36.512Z,21.40
2023-03-18T18:18:23.092Z,20.20
2023-03-18T18:32:16.119Z,35.40
2023-03-18T18:38:52.525Z,49.30
2023-03-18T18:45:55.692Z,30.20
2023-03-18T19:00:06.873Z,38.90
2023-03-18T19:07:25.316Z,31.90
2023-03-18T19:14:40.211Z,24.60
2023-03-18T19:22:08.769Z,25.60
2023-03-18T19:29:22.725Z,30.10
2023-03-18T19:35:59.353Z,28.50
2023-03-18T19:42:53.327Z,33.60
2023-03-18T19:49:58.181Z,40.10
2023-03-18T19:57:07.069Z,45.20
2023-03-18T20:15:05.174Z,37.20
2023-03-18T20:21:44.666Z,33.10
2023-03-18T20:35:59.410Z,34.30
2023-03-18T20:42:45.343Z,33.80
2023-03-18T20:49:50.165Z,34.40
2023-03-18T20:55:58.548Z,38.80
2023-03-18T21:09:16.474Z,41.50
2023-03-18T21:16:06.314Z,45.90
2023-03-18T21:22:11.495Z,49.40
2023-03-18T21:29:08.599Z,46.50
2023-03-18T23:59:35.488Z,34.40
